sensor_id;sensor_type;location;lat;lon;timestamp;temperature;humidity
997;DHT22;487;50.126;8.698;2023-03-03T00:01:04;4.70;99.90
997;DHT22;487;50.126;8.698;2023-03-03T00:03:32;4.60;99.90
997;DHT22;487;50.126;8.698;2023-03-03T00:06:01;4.70;99.90
997;DHT22;487;50.126;8.698;2023-03-03T00:08:30;4.70;99.90
997;DHT22;487;50.126;8.698;2023-03-03T00:10:59;4.60;99.90
997;DHT22;487;50.126;8.698;2023-03-03T00:13:30;4.60;99.90
997;DHT22;487;50.126;8.698;2023-03-03T00:16:13;4.60;99.90
997;DHT22;487;50.126;8.698;2023-03-03T00:18:45;4.60;99.90
997;DHT22;487;50.126;8.698;2023-03-03T00:21:26;4.60;99.90
997;DHT22;487;50.126;8.698;2023-03-03T00:24:17;4.50;99.90
997;DHT22;487;50.126;8.698;2023-03-03T00:26:48;4.40;99.90
997;DHT22;487;50.126;8.698;2023-03-03T00:29:32;4.40;99.90
997;DHT22;487;50.126;8.698;2023-03-03T00:32:17;4.40;99.90
997;DHT22;487;50.126;8.698;2023-03-03T00:34:48;4.40;99.90
997;DHT22;487;50.126;8.698;2023-03-03T00:37:26;4.30;99.90
997;DHT22;487;50.126;8.698;2023-03-03T00:40:10;4.30;99.90
997;DHT22;487;50.126;8.698;2023-03-03T00:42:42;4.30;99.90
997;DHT22;487;50.126;8.698;2023-03-03T00:45:25;4.30;99.90
997;DHT22;487;50.126;8.698;2023-03-03T00:50:40;4.30;99.90
997;DHT22;487;50.126;8.698;2023-03-03T00:53:11;4.30;99.90
997;DHT22;487;50.126;8.698;2023-03-03T00:55:40;4.30;99.90
997;DHT22;487;50.126;8.698;2023-03-03T00:58:09;4.20;99.90
997;DHT22;487;50.126;8.698;2023-03-03T05:02:48;2.20;99.90
997;DHT22;487;50.126;8.698;2023-03-03T05:05:16;2.00;99.90
997;DHT22;487;50.126;8.698;2023-03-03T05:07:44;1.90;99.90
997;DHT22;487;50.126;8.698;2023-03-03T05:10:12;1.90;99.90
997;DHT22;487;50.126;8.698;2023-03-03T05:12:40;1.80;99.90
997;DHT22;487;50.126;8.698;2023-03-03T05:15:08;1.80;99.90
997;DHT22;487;50.126;8.698;2023-03-03T05:17:36;1.70;99.90
997;DHT22;487;50.126;8.698;2023-03-03T05:20:07;1.60;99.90
997;DHT22;487;50.126;8.698;2023-03-03T05:22:35;3.50;99.90
997;DHT22;487;50.126;8.698;2023-03-03T05:25:04;1.60;99.90
997;DHT22;487;50.126;8.698;2023-03-03T05:27:32;1.50;99.90
997;DHT22;487;50.126;8.698;2023-03-03T05:30:00;1.50;99.90
997;DHT22;487;50.126;8.698;2023-03-03T05:32:28;1.50;99.90
997;DHT22;487;50.126;8.698;2023-03-03T05:34:56;1.40;99.90
997;DHT22;487;50.126;8.698;2023-03-03T05:37:25;1.40;99.90
997;DHT22;487;50.126;8.698;2023-03-03T05:39:53;1.40;99.90
997;DHT22;487;50.126;8.698;2023-03-03T05:42:21;1.40;99.90
997;DHT22;487;50.126;8.698;2023-03-03T05:44:48;1.40;99.90
997;DHT22;487;50.126;8.698;2023-03-03T05:47:16;1.40;99.90
997;DHT22;487;50.126;8.698;2023-03-03T05:49:44;1.40;99.90
997;DHT22;487;50.126;8.698;2023-03-03T05:52:12;1.40;99.90
997;DHT22;487;50.126;8.698;2023-03-03T05:54:41;1.40;99.90
997;DHT22;487;50.126;8.698;2023-03-03T05:57:09;1.40;99.90
997;DHT22;487;50.126;8.698;2023-03-03T05:59:37;1.50;99.90
997;DHT22;487;50.126;8.698;2023-03-03T06:02:05;1.50;99.90
997;DHT22;487;50.126;8.698;2023-03-03T06:04:33;1.40;99.90
997;DHT22;487;50.126;8.698;2023-03-03T06:07:01;1.40;99.90
997;DHT22;487;50.126;8.698;2023-03-03T06:09:29;1.40;99.90
997;DHT22;487;50.126;8.698;2023-03-03T06:11:58;1.50;99.90
997;DHT22;487;50.126;8.698;2023-03-03T06:14:26;1.50;99.90
997;DHT22;487;50.126;8.698;2023-03-03T06:16:53;1.50;99.90
997;DHT22;487;50.126;8.698;2023-03-03T06:19:23;1.50;99.90
997;DHT22;487;50.126;8.698;2023-03-03T06:21:51;1.50;99.90
997;DHT22;487;50.126;8.698;2023-03-03T06:24:19;1.50;99.90
997;DHT22;487;50.126;8.698;2023-03-03T06:26:46;1.40;99.90
997;DHT22;487;50.126;8.698;2023-03-03T06:29:16;1.50;99.90
997;DHT22;487;50.126;8.698;2023-03-03T06:31:43;1.40;99.90
997;DHT22;487;50.126;8.698;2023-03-03T06:34:12;1.40;99.90
997;DHT22;487;50.126;8.698;2023-03-03T06:36:40;1.50;99.90
997;DHT22;487;50.126;8.698;2023-03-03T06:39:08;1.50;99.90
997;DHT22;487;50.126;8.698;2023-03-03T06:41:35;1.60;99.90
997;DHT22;487;50.126;8.698;2023-03-03T06:44:03;1.60;99.90
997;DHT22;487;50.126;8.698;2023-03-03T06:46:33;1.60;99.90
997;DHT22;487;50.126;8.698;2023-03-03T06:49:00;1.70;99.90
997;DHT22;487;50.126;8.698;2023-03-03T06:51:31;1.80;99.90
997;DHT22;487;50.126;8.698;2023-03-03T06:54:09;1.80;99.90
997;DHT22;487;50.126;8.698;2023-03-03T06:56:38;1.80;99.90
997;DHT22;487;50.126;8.698;2023-03-03T06:59:11;1.90;99.90
997;DHT22;487;50.126;8.698;2023-03-03T07:01:42;1.80;99.90
997;DHT22;487;50.126;8.698;2023-03-03T07:04:16;1.80;99.90
997;DHT22;487;50.126;8.698;2023-03-03T07:06:47;1.80;99.90
997;DHT22;487;50.126;8.698;2023-03-03T07:09:21;1.90;99.90
997;DHT22;487;50.126;8.698;2023-03-03T07:11:49;1.90;99.90
997;DHT22;487;50.126;8.698;2023-03-03T07:14:18;2.00;99.90
997;DHT22;487;50.126;8.698;2023-03-03T07:16:51;2.00;99.90
997;DHT22;487;50.126;8.698;2023-03-03T07:19:29;2.00;99.90
997;DHT22;487;50.126;8.698;2023-03-03T07:21:57;2.00;99.90
997;DHT22;487;50.126;8.698;2023-03-03T07:24:27;2.00;99.90
997;DHT22;487;50.126;8.698;2023-03-03T07:26:58;2.00;99.90
997;DHT22;487;50.126;8.698;2023-03-03T07:29:28;2.10;99.90
997;DHT22;487;50.126;8.698;2023-03-03T07:31:59;2.30;99.90
997;DHT22;487;50.126;8.698;2023-03-03T07:34:34;2.30;99.90
997;DHT22;487;50.126;8.698;2023-03-03T07:37:10;2.40;99.90
997;DHT22;487;50.126;8.698;2023-03-03T07:39:43;2.40;99.90
997;DHT22;487;50.126;8.698;2023-03-03T07:42:17;2.30;99.90
997;DHT22;487;50.126;8.698;2023-03-03T07:47:20;2.20;99.90
997;DHT22;487;50.126;8.698;2023-03-03T07:49:50;2.20;99.90
997;DHT22;487;50.126;8.698;2023-03-03T07:52:25;2.20;99.90
997;DHT22;487;50.126;8.698;2023-03-03T07:54:55;2.30;99.90
997;DHT22;487;50.126;8.698;2023-03-03T07:57:25;2.30;99.90
997;DHT22;487;50.126;8.698;2023-03-03T07:59:57;2.30;99.90
997;DHT22;487;50.126;8.698;2023-03-03T08:02:37;2.40;99.90
997;DHT22;487;50.126;8.698;2023-03-03T08:05:28;2.40;99.90
997;DHT22;487;50.126;8.698;2023-03-03T08:08:21;2.50;99.90
997;DHT22;487;50.126;8.698;2023-03-03T08:10:55;2.60;99.90
997;DHT22;487;50.126;8.698;2023-03-03T08:13:27;2.50;99.90
997;DHT22;487;50.126;8.698;2023-03-03T08:15:58;2.70;99.90
997;DHT22;487;50.126;8.698;2023-03-03T08:18:33;2.80;99.90
997;DHT22;487;50.126;8.698;2023-03-03T08:21:02;2.90;99.90
997;DHT22;487;50.126;8.698;2023-03-03T08:23:33;2.80;99.90
997;DHT22;487;50.126;8.698;2023-03-03T08:26:01;2.80;99.90
997;DHT22;487;50.126;8.698;2023-03-03T08:28:29;2.70;99.90
997;DHT22;487;50.126;8.698;2023-03-03T08:30:57;2.70;99.90
997;DHT22;487;50.126;8.698;2023-03-03T08:33:45;2.80;99.90
997;DHT22;487;50.126;8.698;2023-03-03T08:36:13;2.80;99.90
997;DHT22;487;50.126;8.698;2023-03-03T08:41:10;3.10;99.90
997;DHT22;487;50.126;8.698;2023-03-03T08:43:38;3.10;99.90
997;DHT22;487;50.126;8.698;2023-03-03T08:46:07;3.10;99.90
997;DHT22;487;50.126;8.698;2023-03-03T08:48:36;3.10;99.90
997;DHT22;487;50.126;8.698;2023-03-03T08:51:05;3.00;99.90
997;DHT22;487;50.126;8.698;2023-03-03T08:56:03;3.00;99.90
997;DHT22;487;50.126;8.698;2023-03-03T08:58:31;3.10;99.90
997;DHT22;487;50.126;8.698;2023-03-03T09:01:02;3.10;99.90
997;DHT22;487;50.126;8.698;2023-03-03T09:05:59;3.10;99.90
997;DHT22;487;50.126;8.698;2023-03-03T09:08:29;3.00;99.90
997;DHT22;487;50.126;8.698;2023-03-03T09:10:56;3.00;99.90
997;DHT22;487;50.126;8.698;2023-03-03T09:13:24;3.00;99.90
997;DHT22;487;50.126;8.698;2023-03-03T09:15:52;3.00;99.90
997;DHT22;487;50.126;8.698;2023-03-03T09:18:21;3.00;99.90
997;DHT22;487;50.126;8.698;2023-03-03T09:20:53;3.00;99.90
997;DHT22;487;50.126;8.698;2023-03-03T09:23:34;3.10;99.90
997;DHT22;487;50.126;8.698;2023-03-03T09:29:23;3.10;99.90
997;DHT22;487;50.126;8.698;2023-03-03T09:31:54;3.30;99.90
997;DHT22;487;50.126;8.698;2023-03-03T09:34:24;3.30;99.90
997;DHT22;487;50.126;8.698;2023-03-03T09:36:54;3.40;99.90
997;DHT22;487;50.126;8.698;2023-03-03T09:39:29;3.30;99.90
997;DHT22;487;50.126;8.698;2023-03-03T09:42:22;3.30;99.90
997;DHT22;487;50.126;8.698;2023-03-03T09:45:13;3.30;99.90
997;DHT22;487;50.126;8.698;2023-03-03T09:47:52;3.20;99.90
997;DHT22;487;50.126;8.698;2023-03-03T09:50:29;3.30;99.90
997;DHT22;487;50.126;8.698;2023-03-03T09:53:13;3.30;99.90
997;DHT22;487;50.126;8.698;2023-03-03T09:55:51;3.40;99.90
997;DHT22;487;50.126;8.698;2023-03-03T09:58:30;3.60;99.90
997;DHT22;487;50.126;8.698;2023-03-03T10:01:11;3.90;99.90
997;DHT22;487;50.126;8.698;2023-03-03T10:04:02;3.90;99.90
997;DHT22;487;50.126;8.698;2023-03-03T10:06:35;4.00;99.90
997;DHT22;487;50.126;8.698;2023-03-03T10:09:33;4.10;99.90
997;DHT22;487;50.126;8.698;2023-03-03T10:12:09;4.20;99.90
997;DHT22;487;50.126;8.698;2023-03-03T10:17:48;4.40;99.90
997;DHT22;487;50.126;8.698;2023-03-03T10:20:49;4.50;99.90
997;DHT22;487;50.126;8.698;2023-03-03T10:23:39;4.50;99.90
997;DHT22;487;50.126;8.698;2023-03-03T10:26:18;4.50;99.90
997;DHT22;487;50.126;8.698;2023-03-03T10:32:29;4.50;99.90
997;DHT22;487;50.126;8.698;2023-03-03T10:35:14;4.50;99.90
997;DHT22;487;50.126;8.698;2023-03-03T10:37:54;4.60;99.90
997;DHT22;487;50.126;8.698;2023-03-03T10:40:29;4.50;99.90
997;DHT22;487;50.126;8.698;2023-03-03T10:43:20;4.50;99.90
997;DHT22;487;50.126;8.698;2023-03-03T10:46:19;4.60;99.90
997;DHT22;487;50.126;8.698;2023-03-03T10:49:08;4.70;99.90
997;DHT22;487;50.126;8.698;2023-03-03T10:51:45;4.70;99.90
997;DHT22;487;50.126;8.698;2023-03-03T10:54:29;4.60;99.90
997;DHT22;487;50.126;8.698;2023-03-03T10:57:03;4.60;99.90
997;DHT22;487;50.126;8.698;2023-03-03T10:59:42;4.50;99.90
997;DHT22;487;50.126;8.698;2023-03-03T11:02:18;4.50;99.90
997;DHT22;487;50.126;8.698;2023-03-03T11:05:02;4.50;99.90
997;DHT22;487;50.126;8.698;2023-03-03T11:07:35;4.70;99.90
997;DHT22;487;50.126;8.698;2023-03-03T11:10:28;4.80;99.90
997;DHT22;487;50.126;8.698;2023-03-03T11:13:08;4.90;99.90
997;DHT22;487;50.126;8.698;2023-03-03T11:15:46;4.90;99.90
997;DHT22;487;50.126;8.698;2023-03-03T11:18:34;4.90;99.90
997;DHT22;487;50.126;8.698;2023-03-03T11:21:12;5.10;99.90
997;DHT22;487;50.126;8.698;2023-03-03T11:26:44;5.00;99.90
997;DHT22;487;50.126;8.698;2023-03-03T11:29:27;5.00;99.90
997;DHT22;487;50.126;8.698;2023-03-03T11:32:00;5.10;99.90
997;DHT22;487;50.126;8.698;2023-03-03T11:34:47;5.10;99.90
997;DHT22;487;50.126;8.698;2023-03-03T11:37:22;5.20;99.90
997;DHT22;487;50.126;8.698;2023-03-03T11:39:54;5.20;99.90
997;DHT22;487;50.126;8.698;2023-03-03T11:42:27;5.20;99.90
997;DHT22;487;50.126;8.698;2023-03-03T11:45:01;5.30;99.90
997;DHT22;487;50.126;8.698;2023-03-03T11:47:33;5.30;99.90
997;DHT22;487;50.126;8.698;2023-03-03T11:50:14;5.20;99.90
997;DHT22;487;50.126;8.698;2023-03-03T11:52:49;5.20;99.90
997;DHT22;487;50.126;8.698;2023-03-03T11:55:23;5.20;99.90
997;DHT22;487;50.126;8.698;2023-03-03T11:57:57;5.30;99.90
997;DHT22;487;50.126;8.698;2023-03-03T12:00:33;5.30;99.90
997;DHT22;487;50.126;8.698;2023-03-03T12:03:19;5.30;99.90
997;DHT22;487;50.126;8.698;2023-03-03T12:06:01;5.40;99.90
997;DHT22;487;50.126;8.698;2023-03-03T12:08:44;5.30;99.90
997;DHT22;487;50.126;8.698;2023-03-03T12:11:20;5.40;99.90
997;DHT22;487;50.126;8.698;2023-03-03T12:13:57;5.40;99.90
997;DHT22;487;50.126;8.698;2023-03-03T12:16:39;5.60;99.90
997;DHT22;487;50.126;8.698;2023-03-03T12:19:17;5.60;99.90
997;DHT22;487;50.126;8.698;2023-03-03T12:24:59;5.60;99.90
997;DHT22;487;50.126;8.698;2023-03-03T12:27:38;5.70;99.90
997;DHT22;487;50.126;8.698;2023-03-03T12:30:15;5.80;99.90
997;DHT22;487;50.126;8.698;2023-03-03T12:33:00;5.70;99.90
997;DHT22;487;50.126;8.698;2023-03-03T12:35:38;5.70;99.90
997;DHT22;487;50.126;8.698;2023-03-03T12:38:18;5.70;99.90
997;DHT22;487;50.126;8.698;2023-03-03T12:40:55;5.80;99.90
997;DHT22;487;50.126;8.698;2023-03-03T12:43:36;5.80;99.90
997;DHT22;487;50.126;8.698;2023-03-03T12:46:16;5.90;99.90
997;DHT22;487;50.126;8.698;2023-03-03T12:48:46;5.90;99.90
997;DHT22;487;50.126;8.698;2023-03-03T12:51:24;6.20;99.90
997;DHT22;487;50.126;8.698;2023-03-03T12:54:19;6.20;99.90
997;DHT22;487;50.126;8.698;2023-03-03T12:56:53;6.30;99.90
997;DHT22;487;50.126;8.698;2023-03-03T12:59:27;6.30;99.90
997;DHT22;487;50.126;8.698;2023-03-03T13:02:14;6.40;99.90
997;DHT22;487;50.126;8.698;2023-03-03T13:04:49;6.40;99.90
997;DHT22;487;50.126;8.698;2023-03-03T13:07:23;6.40;99.90
997;DHT22;487;50.126;8.698;2023-03-03T13:10:03;6.40;99.90
997;DHT22;487;50.126;8.698;2023-03-03T13:12:46;6.40;99.90
997;DHT22;487;50.126;8.698;2023-03-03T13:15:22;6.40;99.90
997;DHT22;487;50.126;8.698;2023-03-03T13:18:15;6.50;99.90
997;DHT22;487;50.126;8.698;2023-03-03T13:20:51;6.70;99.90
997;DHT22;487;50.126;8.698;2023-03-03T13:23:31;6.60;99.90
997;DHT22;487;50.126;8.698;2023-03-03T13:26:10;6.60;99.90
997;DHT22;487;50.126;8.698;2023-03-03T13:29:02;6.60;99.90
997;DHT22;487;50.126;8.698;2023-03-03T13:31:33;6.60;99.90
997;DHT22;487;50.126;8.698;2023-03-03T13:34:02;6.60;99.90
997;DHT22;487;50.126;8.698;2023-03-03T13:36:35;6.60;99.90
997;DHT22;487;50.126;8.698;2023-03-03T13:39:16;6.80;99.90
997;DHT22;487;50.126;8.698;2023-03-03T13:42:03;6.90;99.90
997;DHT22;487;50.126;8.698;2023-03-03T13:44:46;7.00;99.90
997;DHT22;487;50.126;8.698;2023-03-03T13:47:26;7.00;99.90
997;DHT22;487;50.126;8.698;2023-03-03T13:50:18;7.00;99.90
997;DHT22;487;50.126;8.698;2023-03-03T13:56:01;7.10;99.90
997;DHT22;487;50.126;8.698;2023-03-03T13:58:46;7.10;99.90
997;DHT22;487;50.126;8.698;2023-03-03T14:01:26;7.10;99.90
997;DHT22;487;50.126;8.698;2023-03-03T14:04:04;7.10;99.90
997;DHT22;487;50.126;8.698;2023-03-03T14:06:37;7.10;99.90
997;DHT22;487;50.126;8.698;2023-03-03T14:09:21;7.10;99.90
997;DHT22;487;50.126;8.698;2023-03-03T14:12:04;7.10;99.90
997;DHT22;487;50.126;8.698;2023-03-03T14:14:46;7.10;99.90
997;DHT22;487;50.126;8.698;2023-03-03T14:17:18;7.30;99.90
997;DHT22;487;50.126;8.698;2023-03-03T14:19:59;7.30;99.90
997;DHT22;487;50.126;8.698;2023-03-03T14:22:36;7.30;99.90
997;DHT22;487;50.126;8.698;2023-03-03T14:25:08;7.30;99.90
997;DHT22;487;50.126;8.698;2023-03-03T14:27:39;7.40;99.90
997;DHT22;487;50.126;8.698;2023-03-03T14:30:27;7.50;99.90
997;DHT22;487;50.126;8.698;2023-03-03T14:33:14;7.40;99.90
997;DHT22;487;50.126;8.698;2023-03-03T14:35:43;7.40;99.90
997;DHT22;487;50.126;8.698;2023-03-03T14:38:17;7.40;99.90
997;DHT22;487;50.126;8.698;2023-03-03T14:40:46;7.40;99.90
997;DHT22;487;50.126;8.698;2023-03-03T14:43:22;7.30;99.90
997;DHT22;487;50.126;8.698;2023-03-03T14:45:53;7.40;99.90
997;DHT22;487;50.126;8.698;2023-03-03T14:48:23;7.50;99.90
997;DHT22;487;50.126;8.698;2023-03-03T14:50:52;7.60;99.90
997;DHT22;487;50.126;8.698;2023-03-03T14:53:31;7.80;99.90
997;DHT22;487;50.126;8.698;2023-03-03T14:56:21;7.60;99.90
997;DHT22;487;50.126;8.698;2023-03-03T14:58:51;7.50;99.90
997;DHT22;487;50.126;8.698;2023-03-03T15:01:30;7.50;99.90
997;DHT22;487;50.126;8.698;2023-03-03T15:04:01;7.50;99.90
997;DHT22;487;50.126;8.698;2023-03-03T15:06:35;7.40;99.90
997;DHT22;487;50.126;8.698;2023-03-03T15:09:26;7.50;99.90
997;DHT22;487;50.126;8.698;2023-03-03T15:11:56;7.50;99.90
997;DHT22;487;50.126;8.698;2023-03-03T15:14:29;7.40;99.90
997;DHT22;487;50.126;8.698;2023-03-03T15:17:25;7.40;99.90
997;DHT22;487;50.126;8.698;2023-03-03T15:20:21;7.50;99.90
997;DHT22;487;50.126;8.698;2023-03-03T15:22:51;7.50;99.90
997;DHT22;487;50.126;8.698;2023-03-03T15:25:31;7.70;99.90
997;DHT22;487;50.126;8.698;2023-03-03T15:28:32;7.70;99.90
997;DHT22;487;50.126;8.698;2023-03-03T15:31:06;7.70;99.90
997;DHT22;487;50.126;8.698;2023-03-03T15:33:45;7.70;99.90
997;DHT22;487;50.126;8.698;2023-03-03T15:36:20;7.80;99.90
997;DHT22;487;50.126;8.698;2023-03-03T15:38:59;7.90;99.90
997;DHT22;487;50.126;8.698;2023-03-03T15:41:37;7.80;99.90
997;DHT22;487;50.126;8.698;2023-03-03T15:44:17;7.80;99.90
997;DHT22;487;50.126;8.698;2023-03-03T15:47:02;7.70;99.90
997;DHT22;487;50.126;8.698;2023-03-03T15:49:56;7.70;99.90
997;DHT22;487;50.126;8.698;2023-03-03T15:52:37;8.00;99.90
997;DHT22;487;50.126;8.698;2023-03-03T15:55:21;8.00;99.90
997;DHT22;487;50.126;8.698;2023-03-03T15:58:02;8.30;99.90
997;DHT22;487;50.126;8.698;2023-03-03T16:00:35;8.70;99.90
997;DHT22;487;50.126;8.698;2023-03-03T16:03:11;8.80;99.90
997;DHT22;487;50.126;8.698;2023-03-03T16:05:51;9.20;99.90
997;DHT22;487;50.126;8.698;2023-03-03T16:08:24;9.20;99.90
997;DHT22;487;50.126;8.698;2023-03-03T16:11:01;10.30;99.90
997;DHT22;487;50.126;8.698;2023-03-03T16:13:46;10.40;99.90
997;DHT22;487;50.126;8.698;2023-03-03T16:16:26;11.40;99.90
997;DHT22;487;50.126;8.698;2023-03-03T16:19:10;12.30;99.90
997;DHT22;487;50.126;8.698;2023-03-03T16:22:02;12.40;99.90
997;DHT22;487;50.126;8.698;2023-03-03T16:24:40;12.20;99.90
997;DHT22;487;50.126;8.698;2023-03-03T16:27:15;11.60;99.90
997;DHT22;487;50.126;8.698;2023-03-03T16:30:02;11.60;99.90
997;DHT22;487;50.126;8.698;2023-03-03T16:32:36;9.10;99.90
997;DHT22;487;50.126;8.698;2023-03-03T16:35:20;11.10;99.90
997;DHT22;487;50.126;8.698;2023-03-03T16:37:59;11.00;99.90
997;DHT22;487;50.126;8.698;2023-03-03T16:40:31;11.00;99.90
997;DHT22;487;50.126;8.698;2023-03-03T16:43:08;11.00;99.90
997;DHT22;487;50.126;8.698;2023-03-03T16:45:38;11.00;99.90
997;DHT22;487;50.126;8.698;2023-03-03T16:48:18;10.70;99.90
997;DHT22;487;50.126;8.698;2023-03-03T16:50:55;10.40;99.90
997;DHT22;487;50.126;8.698;2023-03-03T16:53:46;10.40;99.90
997;DHT22;487;50.126;8.698;2023-03-03T16:56:20;10.10;99.90
997;DHT22;487;50.126;8.698;2023-03-03T17:01:48;9.20;99.90
997;DHT22;487;50.126;8.698;2023-03-03T17:04:33;9.20;99.90
997;DHT22;487;50.126;8.698;2023-03-03T17:07:11;8.70;99.90
997;DHT22;487;50.126;8.698;2023-03-03T17:12:41;8.10;99.90
997;DHT22;487;50.126;8.698;2023-03-03T17:15:21;8.00;99.90
997;DHT22;487;50.126;8.698;2023-03-03T17:17:56;7.80;99.90
997;DHT22;487;50.126;8.698;2023-03-03T17:20:36;7.40;99.90
997;DHT22;487;50.126;8.698;2023-03-03T17:23:28;7.40;99.90
997;DHT22;487;50.126;8.698;2023-03-03T17:26:15;7.20;99.90
997;DHT22;487;50.126;8.698;2023-03-03T17:28:53;7.10;99.90
997;DHT22;487;50.126;8.698;2023-03-03T17:31:31;6.90;99.90
997;DHT22;487;50.126;8.698;2023-03-03T17:34:14;6.80;99.90
997;DHT22;487;50.126;8.698;2023-03-03T17:37:00;9.60;99.90
997;DHT22;487;50.126;8.698;2023-03-03T17:42:32;6.40;99.90
997;DHT22;487;50.126;8.698;2023-03-03T17:45:07;6.30;99.90
997;DHT22;487;50.126;8.698;2023-03-03T17:47:46;6.30;99.90
997;DHT22;487;50.126;8.698;2023-03-03T17:50:31;6.30;99.90
997;DHT22;487;50.126;8.698;2023-03-03T17:53:28;6.20;99.90
997;DHT22;487;50.126;8.698;2023-03-03T17:56:07;6.20;99.90
997;DHT22;487;50.126;8.698;2023-03-03T17:58:51;6.10;99.90
997;DHT22;487;50.126;8.698;2023-03-03T18:01:35;6.00;99.90
997;DHT22;487;50.126;8.698;2023-03-03T18:04:34;6.00;99.90
997;DHT22;487;50.126;8.698;2023-03-03T18:07:32;5.90;99.90
997;DHT22;487;50.126;8.698;2023-03-03T18:13:08;5.80;99.90
997;DHT22;487;50.126;8.698;2023-03-03T18:15:55;5.70;99.90
997;DHT22;487;50.126;8.698;2023-03-03T18:18:50;5.70;99.90
997;DHT22;487;50.126;8.698;2023-03-03T18:21:22;5.60;99.90
997;DHT22;487;50.126;8.698;2023-03-03T18:24:13;5.60;99.90
997;DHT22;487;50.126;8.698;2023-03-03T18:26:42;5.60;99.90
997;DHT22;487;50.126;8.698;2023-03-03T18:29:17;5.50;99.90
997;DHT22;487;50.126;8.698;2023-03-03T18:31:59;5.50;99.90
997;DHT22;487;50.126;8.698;2023-03-03T18:34:35;5.50;99.90
997;DHT22;487;50.126;8.698;2023-03-03T18:37:08;5.40;99.90
997;DHT22;487;50.126;8.698;2023-03-03T18:39:42;5.40;99.90
997;DHT22;487;50.126;8.698;2023-03-03T18:42:33;5.40;99.90
997;DHT22;487;50.126;8.698;2023-03-03T18:48:11;5.30;99.90
997;DHT22;487;50.126;8.698;2023-03-03T18:50:40;5.30;99.90
997;DHT22;487;50.126;8.698;2023-03-03T18:53:17;5.20;99.90
997;DHT22;487;50.126;8.698;2023-03-03T18:55:46;5.20;99.90
997;DHT22;487;50.126;8.698;2023-03-03T18:58:36;5.20;99.90
997;DHT22;487;50.126;8.698;2023-03-03T19:01:34;5.10;99.90
997;DHT22;487;50.126;8.698;2023-03-03T19:04:16;5.00;99.90
997;DHT22;487;50.126;8.698;2023-03-03T19:07:13;5.00;99.90
997;DHT22;487;50.126;8.698;2023-03-03T19:09:50;4.90;99.90
997;DHT22;487;50.126;8.698;2023-03-03T19:12:55;4.80;99.90
997;DHT22;487;50.126;8.698;2023-03-03T19:15:43;4.70;99.90
997;DHT22;487;50.126;8.698;2023-03-03T19:18:16;4.60;99.90
997;DHT22;487;50.126;8.698;2023-03-03T19:20:49;4.50;99.90
997;DHT22;487;50.126;8.698;2023-03-03T19:23:20;4.50;99.90
997;DHT22;487;50.126;8.698;2023-03-03T19:28:49;4.40;99.90
997;DHT22;487;50.126;8.698;2023-03-03T19:31:27;4.40;99.90
997;DHT22;487;50.126;8.698;2023-03-03T19:34:03;4.40;99.90
997;DHT22;487;50.126;8.698;2023-03-03T19:36:50;4.40;99.90
997;DHT22;487;50.126;8.698;2023-03-03T19:39:42;4.40;99.90
997;DHT22;487;50.126;8.698;2023-03-03T19:42:21;4.40;99.90
997;DHT22;487;50.126;8.698;2023-03-03T19:45:06;4.40;99.90
997;DHT22;487;50.126;8.698;2023-03-03T19:47:40;4.40;99.90
997;DHT22;487;50.126;8.698;2023-03-03T19:50:22;4.30;99.90
997;DHT22;487;50.126;8.698;2023-03-03T19:53:00;4.30;99.90
997;DHT22;487;50.126;8.698;2023-03-03T19:55:41;4.30;99.90
997;DHT22;487;50.126;8.698;2023-03-03T19:58:21;4.20;99.90
997;DHT22;487;50.126;8.698;2023-03-03T20:00:56;4.10;99.90
997;DHT22;487;50.126;8.698;2023-03-03T20:06:31;4.00;99.90
997;DHT22;487;50.126;8.698;2023-03-03T20:09:07;4.00;99.90
997;DHT22;487;50.126;8.698;2023-03-03T20:11:51;3.90;99.90
997;DHT22;487;50.126;8.698;2023-03-03T20:14:41;3.90;99.90
997;DHT22;487;50.126;8.698;2023-03-03T20:17:24;3.80;99.90
997;DHT22;487;50.126;8.698;2023-03-03T20:19:59;3.80;99.90
997;DHT22;487;50.126;8.698;2023-03-03T20:22:35;3.80;99.90
997;DHT22;487;50.126;8.698;2023-03-03T20:25:21;3.80;99.90
997;DHT22;487;50.126;8.698;2023-03-03T20:28:00;3.70;99.90
997;DHT22;487;50.126;8.698;2023-03-03T20:30:45;3.70;99.90
997;DHT22;487;50.126;8.698;2023-03-03T20:33:34;3.70;99.90
997;DHT22;487;50.126;8.698;2023-03-03T20:36:09;3.60;99.90
997;DHT22;487;50.126;8.698;2023-03-03T20:41:26;3.60;99.90
997;DHT22;487;50.126;8.698;2023-03-03T20:44:06;3.50;99.90
997;DHT22;487;50.126;8.698;2023-03-03T20:46:43;3.50;99.90
997;DHT22;487;50.126;8.698;2023-03-03T20:49:26;3.50;99.90
997;DHT22;487;50.126;8.698;2023-03-03T20:52:00;3.50;99.90
997;DHT22;487;50.126;8.698;2023-03-03T20:54:37;3.50;99.90
997;DHT22;487;50.126;8.698;2023-03-03T20:57:16;3.50;99.90
997;DHT22;487;50.126;8.698;2023-03-03T20:59:51;3.50;99.90
997;DHT22;487;50.126;8.698;2023-03-03T21:02:24;3.50;99.90
997;DHT22;487;50.126;8.698;2023-03-03T21:05:09;3.40;99.90
997;DHT22;487;50.126;8.698;2023-03-03T21:07:49;3.40;99.90
997;DHT22;487;50.126;8.698;2023-03-03T21:10:20;3.40;99.90
997;DHT22;487;50.126;8.698;2023-03-03T21:12:55;3.40;99.90
997;DHT22;487;50.126;8.698;2023-03-03T21:15:28;3.40;99.90
997;DHT22;487;50.126;8.698;2023-03-03T21:17:57;3.40;99.90
997;DHT22;487;50.126;8.698;2023-03-03T21:20:29;3.40;99.90
997;DHT22;487;50.126;8.698;2023-03-03T21:22:58;3.40;99.90
997;DHT22;487;50.126;8.698;2023-03-03T21:25:47;3.20;99.90
997;DHT22;487;50.126;8.698;2023-03-03T21:28:24;3.20;99.90
997;DHT22;487;50.126;8.698;2023-03-03T21:31:09;3.20;99.90
997;DHT22;487;50.126;8.698;2023-03-03T21:33:46;3.20;99.90
997;DHT22;487;50.126;8.698;2023-03-03T21:36:15;3.20;99.90
997;DHT22;487;50.126;8.698;2023-03-03T21:38:44;3.20;99.90
997;DHT22;487;50.126;8.698;2023-03-03T21:41:13;3.20;99.90
997;DHT22;487;50.126;8.698;2023-03-03T21:43:45;3.20;99.90
997;DHT22;487;50.126;8.698;2023-03-03T21:46:17;3.20;99.90
997;DHT22;487;50.126;8.698;2023-03-03T21:51:13;3.10;99.90
997;DHT22;487;50.126;8.698;2023-03-03T21:53:42;3.10;99.90
997;DHT22;487;50.126;8.698;2023-03-03T21:56:10;3.20;99.90
997;DHT22;487;50.126;8.698;2023-03-03T21:58:39;3.20;99.90
997;DHT22;487;50.126;8.698;2023-03-03T22:01:09;3.10;99.90
997;DHT22;487;50.126;8.698;2023-03-03T22:03:37;3.20;99.90
997;DHT22;487;50.126;8.698;2023-03-03T22:06:05;3.10;99.90
997;DHT22;487;50.126;8.698;2023-03-03T22:08:33;3.10;99.90
997;DHT22;487;50.126;8.698;2023-03-03T22:11:01;3.10;99.90
997;DHT22;487;50.126;8.698;2023-03-03T22:13:31;3.10;99.90
997;DHT22;487;50.126;8.698;2023-03-03T22:21:03;3.00;99.90
997;DHT22;487;50.126;8.698;2023-03-03T22:23:32;3.00;99.90
997;DHT22;487;50.126;8.698;2023-03-03T22:26:00;2.90;99.90
997;DHT22;487;50.126;8.698;2023-03-03T22:28:28;2.90;99.90
997;DHT22;487;50.126;8.698;2023-03-03T22:30:56;2.90;99.90
997;DHT22;487;50.126;8.698;2023-03-03T22:40:50;2.80;99.90
997;DHT22;487;50.126;8.698;2023-03-03T22:43:19;2.80;99.90
997;DHT22;487;50.126;8.698;2023-03-03T22:48:16;2.80;99.90
997;DHT22;487;50.126;8.698;2023-03-03T22:50:44;2.80;99.90
997;DHT22;487;50.126;8.698;2023-03-03T22:53:14;2.80;99.90
997;DHT22;487;50.126;8.698;2023-03-03T22:55:42;2.70;99.90
997;DHT22;487;50.126;8.698;2023-03-03T22:58:11;2.70;99.90
997;DHT22;487;50.126;8.698;2023-03-03T23:00:45;2.70;99.90
997;DHT22;487;50.126;8.698;2023-03-03T23:03:14;2.70;99.90
997;DHT22;487;50.126;8.698;2023-03-03T23:05:42;2.60;99.90
997;DHT22;487;50.126;8.698;2023-03-03T23:08:12;2.60;99.90